首页
METAR-TAF:

METAR-TAF

机场 :

富兰克林, 宾夕法尼亚州, 美国

纬度: 41-23N, 经度: 079-52W, 海拔: 469米

当前天气观测

该预报发布于8分钟前的13:56 UTC
风速7节,风向西转西南
温度 -8°C
湿度 79%
气压 1032 hPa
能見度: 14.5公里
阴天层高于2100英尺
小雪

METAR: KFKL 211356Z AUTO 25007KT 9SM -SN OVC021 M08/M11 A3048 RMK AO2 SLP353 P0000 T10831106 FZRANO

时间: 09:04 (14:04 UTC)

预报

该预报发布于2小时和42分钟前的11:22 UTC
预报有效从21日的 12点(UTC)到 22日的 12点(UTC)
风速7节,风向西转西北
能見度: 10公里
阴天层高于2800英尺
小阵雪
从 21日的 1400点(UTC)
风速5节,风向西转西北
能見度: 10公里
多云层高于2500英尺
从 21日的 2000点(UTC)
风速5节,风向西
能見度: 10公里
多云层高于3500英尺
从 22日的 0200点(UTC)
风速4节,风向西转西南
能見度: 10公里
散云层高于2500英尺

TAF: KFKL 211122Z 2112/2212 29007KT P6SM -SHSN OVC028 FM211400 30005KT P6SM BKN025 FM212000 28005KT P6SM BKN035 FM220200 25004KT P6SM SCT025

超过4000个机场的气象观测和天气预报(METAR&TAF报告)。

可查询的气象台以黄色和红色小点在地图上表示。

将鼠标移到小点上方,可查看气象台名称。

然后点击查看天气观测和预报。

如需切换地图:点击带黑十字的绿色按钮放大地图;点击带横线的绿色按钮缩小地图;或者点击绿色箭头查看邻近地区的地图。


METAR-TAF: